Nearby METAR Reports

This page may be slow to load as it queries the National Weather Service for data.

KBIS - Bismarck, North Dakota, USA
Distance from station: S 10mi, 15km
Updated: Thu, 21-Feb-2019 9:52pm CST
Clear
Clear
 Wind from WSW
Wind: WSW 3 mph , 6 km/h
Temperature: -4°F , -20°C
Dew Point: -8°F , -22°C
Humidity: 84%
Barometer: 30.25 inHg , 1024.4 hPa
Clouds: Clear
Visibility: 10 miles , 16 km
2019/02/22 03:52 KBIS 220352Z 24003KT 10SM CLR M20/M22 A3025 RMK AO2 SLP287 T12001217
KDIK - Dickinson, North Dakota, USA
Distance from station: W 95mi, 154km
Updated: Thu, 21-Feb-2019 9:56pm CST
Clear
Clear
 Wind from W
Wind: W 12 mph , 19 km/h
Temperature: -6°F , -21°C
Wind Chill: -25°F , -32°C
Dew Point: -9°F , -23°C
Humidity: 84%
Barometer: 30.16 inHg , 1021.3 hPa
Clouds: Clear
Visibility: 9 miles , 14 km
2019/02/22 03:56 KDIK 220356Z AUTO 27010KT 9SM CLR M21/M23 A3016 RMK AO2 SLP282 I1000 T12061233
 
KISN - Williston, North Dakota, USA
Distance from station: NNW 2mi, 2km
Updated: Thu, 21-Feb-2019 9:52pm CST
Partly cloudy
Partly cloudy
 Wind from WSW
Wind: WSW 8 mph , 13 km/h
Temperature: -6°F , -21°C
Wind Chill: -21°F , -29°C
Dew Point: -9°F , -23°C
Humidity: 84%
Barometer: 30.23 inHg , 1023.7 hPa
Clouds: Partly cloudy
Visibility: 10 miles , 16 km
Cloud details: Partly cloudy 6500 ft
2019/02/22 03:52 KISN 220352Z AUTO 24007KT 10SM SCT065 M21/M23 A3023 RMK AO2 SLP292 T12061228
KFAR - Fargo, North Dakota, USA
Distance from station: NNW 4mi, 7km
Updated: Thu, 21-Feb-2019 9:53pm CST
Mist, Overcast
Mist, Overcast
 Wind from S
Wind: S 7 mph , 11 km/h
Temperature: 12°F , -11°C
Wind Chill: 1°F , -17°C
Dew Point: 9°F , -13°C
Humidity: 85%
Barometer: 30.29 inHg , 1025.7 hPa
Summary: Mist
Clouds: Overcast
Visibility: 3 miles , 5 km
Cloud details: Overcast 3900 ft
2019/02/22 03:53 KFAR 220353Z 19006KT 3SM BR OVC039 M11/M13 A3029 RMK AO2 SLP277 T11111128
 
KGFK - Grand Forks, North Dakota, USA
Distance from station: NNW 76mi, 123km
Updated: Thu, 21-Feb-2019 9:53pm CST
Light snow, Overcast
Light snow, Overcast
 Wind from calm
Wind: Calm
Temperature: 12°F , -11°C
Dew Point: 9°F , -13°C
Humidity: 85%
Barometer: 30.27 inHg , 1025.1 hPa
Summary: Light Snow
Clouds: Overcast
Visibility: 8 miles , 13 km
Cloud details: Overcast 4900 ft
2019/02/22 03:53 KGFK 220353Z 00000KT 8SM -SN OVC049 M11/M13 A3027 RMK AO2 SLP269 P0000 T11061133
KMOT - Minot, North Dakota, USA
Distance from station: E 109mi, 175km
Updated: Thu, 21-Feb-2019 10:41pm CST
Mostly cloudy
Mostly cloudy
 Wind from SW
Wind: SW 10 mph , 17 km/h
Temperature: -0°F , -18°C
Wind Chill: -16°F , -27°C
Dew Point: -6°F , -21°C
Humidity: 78%
Barometer: 30.21 inHg , 1023 hPa
Clouds: Mostly cloudy
Visibility: 10 miles , 16 km
Cloud details: Mostly cloudy 2900 ft
2019/02/22 04:41 KMOT 220441Z AUTO 23009KT 10SM BKN029 M18/M21 A3021 RMK AO2 T11831211